createdAt,value
2019-03-15T00:01:36.149Z,3.87
2019-03-15T00:04:05.051Z,3.60
2019-03-15T00:06:34.136Z,3.05
2019-03-15T00:09:03.801Z,3.45
2019-03-15T00:11:32.826Z,3.15
2019-03-15T00:14:02.028Z,3.70
2019-03-15T00:16:31.186Z,4.15
2019-03-15T00:19:00.286Z,4.17
2019-03-15T00:21:29.232Z,3.02
2019-03-15T00:23:58.519Z,3.45
2019-03-15T00:26:27.528Z,3.92
2019-03-15T00:28:56.552Z,4.22
2019-03-15T00:31:25.653Z,3.45
2019-03-15T00:33:54.769Z,3.55
2019-03-15T00:36:24.052Z,2.92
2019-03-15T00:38:53.893Z,3.12
2019-03-15T00:41:23.110Z,3.27
2019-03-15T00:43:52.199Z,3.98
2019-03-15T00:46:21.277Z,3.62
2019-03-15T00:48:50.227Z,4.00
2019-03-15T00:51:19.096Z,3.40
2019-03-15T00:53:47.994Z,3.33
2019-03-15T00:56:16.655Z,3.87
2019-03-15T00:58:45.604Z,3.42
2019-03-15T01:01:14.435Z,3.27
2019-03-15T01:03:43.711Z,3.77
2019-03-15T01:06:12.847Z,3.83
2019-03-15T01:08:42.290Z,4.00
2019-03-15T01:11:11.357Z,4.53
2019-03-15T01:13:40.277Z,4.33
2019-03-15T01:16:09.492Z,4.78
2019-03-15T01:18:38.529Z,3.47
2019-03-15T01:21:07.730Z,4.20
2019-03-15T01:23:37.011Z,4.25
2019-03-15T01:26:06.022Z,4.37
2019-03-15T01:28:35.257Z,4.62
2019-03-15T01:31:04.353Z,4.50
2019-03-15T01:33:33.364Z,3.98
2019-03-15T01:36:02.471Z,4.45
2019-03-15T01:38:31.380Z,5.45
2019-03-15T01:41:00.401Z,5.15
2019-03-15T01:43:29.347Z,5.28
2019-03-15T01:45:58.299Z,5.00
2019-03-15T01:48:27.346Z,5.65
2019-03-15T01:50:56.445Z,5.05
2019-03-15T01:53:25.558Z,4.58
2019-03-15T01:55:54.769Z,4.62
2019-03-15T01:58:23.938Z,4.67
2019-03-15T02:00:53.037Z,4.53
2019-03-15T02:03:22.153Z,4.97
2019-03-15T02:05:51.794Z,4.08
2019-03-15T02:08:20.850Z,4.17
2019-03-15T02:10:49.833Z,3.70
2019-03-15T02:13:18.956Z,3.92
2019-03-15T02:15:47.935Z,4.90
2019-03-15T02:18:16.926Z,4.95
2019-03-15T02:20:45.865Z,3.60
2019-03-15T02:23:14.915Z,3.83
2019-03-15T02:25:44.022Z,4.58
2019-03-15T02:28:13.008Z,3.40
2019-03-15T02:30:41.973Z,4.10
2019-03-15T02:33:10.960Z,3.00
2019-03-15T02:35:40.037Z,3.62
2019-03-15T02:38:09.179Z,3.35
2019-03-15T02:40:38.814Z,3.70
2019-03-15T02:43:08.088Z,2.95
2019-03-15T02:45:37.210Z,4.03
2019-03-15T02:48:06.217Z,2.98
2019-03-15T02:50:35.327Z,3.40
2019-03-15T02:53:04.392Z,3.00
2019-03-15T02:55:33.355Z,3.25
2019-03-15T02:58:02.399Z,3.37
2019-03-15T03:00:31.512Z,2.75
2019-03-15T03:03:00.571Z,3.22
2019-03-15T03:05:29.519Z,2.72
2019-03-15T03:07:58.469Z,3.47
2019-03-15T03:10:29.205Z,3.98
2019-03-15T03:12:58.368Z,3.25
2019-03-15T03:15:27.343Z,2.60
2019-03-15T03:17:56.353Z,3.30
2019-03-15T03:20:25.290Z,2.72
2019-03-15T03:22:54.295Z,2.60
2019-03-15T03:25:23.354Z,3.37
2019-03-15T03:27:52.358Z,3.27
2019-03-15T03:30:21.508Z,2.70
2019-03-15T03:32:50.589Z,3.27
2019-03-15T03:35:19.475Z,2.90
2019-03-15T03:37:48.591Z,3.95
2019-03-15T03:40:20.085Z,3.42
2019-03-15T03:42:48.370Z,3.45
2019-03-15T03:45:17.454Z,4.62
2019-03-15T03:47:46.425Z,4.40
2019-03-15T03:50:15.515Z,4.00
2019-03-15T03:52:44.599Z,3.42
2019-03-15T03:55:13.655Z,3.50
2019-03-15T03:57:42.622Z,3.80
2019-03-15T04:00:17.440Z,3.83
2019-03-15T04:02:46.564Z,3.25
2019-03-15T04:05:15.746Z,3.80
2019-03-15T04:07:44.525Z,3.65
2019-03-15T04:10:13.557Z,3.35
2019-03-15T04:12:42.511Z,3.17
2019-03-15T04:15:12.035Z,2.52
2019-03-15T04:17:41.171Z,2.40
2019-03-15T04:20:12.227Z,2.62
2019-03-15T04:22:41.557Z,2.45
2019-03-15T04:25:11.209Z,2.35
2019-03-15T04:27:40.294Z,2.65
2019-03-15T04:30:11.830Z,2.83
2019-03-15T04:32:40.717Z,2.90
2019-03-15T04:35:09.806Z,2.50
2019-03-15T04:37:38.768Z,2.17
2019-03-15T04:40:10.514Z,2.72
2019-03-15T04:42:39.550Z,2.72
2019-03-15T04:45:09.012Z,2.42
2019-03-15T04:47:38.100Z,3.00
2019-03-15T04:50:08.023Z,2.90
2019-03-15T04:52:37.278Z,2.83
2019-03-15T04:55:06.740Z,2.67
2019-03-15T04:57:35.709Z,2.35
2019-03-15T05:00:06.921Z,2.50
2019-03-15T05:02:35.983Z,2.75
2019-03-15T05:05:06.368Z,2.62
2019-03-15T05:07:35.397Z,2.35
2019-03-15T05:10:06.232Z,3.30
2019-03-15T05:12:35.177Z,2.72
2019-03-15T05:15:04.826Z,2.60
2019-03-15T05:17:33.809Z,2.80
2019-03-15T05:20:02.936Z,2.58
2019-03-15T05:22:31.916Z,2.70
2019-03-15T05:25:00.934Z,2.72
2019-03-15T05:27:29.790Z,2.90
2019-03-15T05:29:58.805Z,2.35
2019-03-15T05:32:30.833Z,2.85
2019-03-15T05:34:58.482Z,2.83
2019-03-15T05:37:27.376Z,2.70
2019-03-15T05:39:56.685Z,2.58
2019-03-15T05:42:25.931Z,6.37
2019-03-15T05:44:54.980Z,2.85
2019-03-15T05:47:24.283Z,2.85
2019-03-15T05:49:53.423Z,3.05
2019-03-15T05:52:22.415Z,3.27
2019-03-15T05:54:51.337Z,3.37
2019-03-15T05:57:20.471Z,3.20
2019-03-15T05:59:49.356Z,3.60
2019-03-15T06:02:18.365Z,3.72
2019-03-15T06:04:47.326Z,3.87
2019-03-15T06:07:16.683Z,2.55
2019-03-15T06:09:45.748Z,2.87
2019-03-15T06:12:14.792Z,2.87
2019-03-15T06:14:46.784Z,3.27
2019-03-15T06:17:14.774Z,3.77
2019-03-15T06:19:44.159Z,3.65
2019-03-15T06:22:13.124Z,3.20
2019-03-15T06:24:42.160Z,3.02
2019-03-15T06:27:11.242Z,3.85
2019-03-15T06:29:40.305Z,3.22
2019-03-15T06:32:09.507Z,3.87
2019-03-15T06:34:39.600Z,3.08
2019-03-15T06:37:08.924Z,3.50
2019-03-15T06:39:37.861Z,3.10
2019-03-15T06:42:06.938Z,4.25
2019-03-15T06:44:37.475Z,3.62
2019-03-15T06:47:06.909Z,2.77
2019-03-15T06:49:35.873Z,3.15
2019-03-15T06:52:04.655Z,3.60
2019-03-15T06:54:33.809Z,3.42
2019-03-15T06:57:03.040Z,2.87
2019-03-15T06:59:33.677Z,3.47
2019-03-15T07:02:02.783Z,3.67
2019-03-15T07:04:31.947Z,2.62
2019-03-15T07:07:00.936Z,2.87
2019-03-15T07:09:31.029Z,3.20
2019-03-15T07:12:09.428Z,3.17
2019-03-15T07:14:31.248Z,3.58
2019-03-15T07:17:00.361Z,2.95
2019-03-15T07:19:30.590Z,2.92
2019-03-15T07:21:59.659Z,2.95
2019-03-15T07:24:28.730Z,2.87
2019-03-15T07:27:11.576Z,3.87
2019-03-15T07:29:28.430Z,3.33
2019-03-15T07:31:57.685Z,2.95
2019-03-15T07:34:26.676Z,2.95
2019-03-15T07:36:55.833Z,2.52
2019-03-15T07:39:26.612Z,2.17
2019-03-15T07:41:55.511Z,2.42
2019-03-15T07:44:24.488Z,3.22
2019-03-15T07:46:53.723Z,2.90
2019-03-15T07:49:22.846Z,2.30
2019-03-15T07:51:55.114Z,2.42
2019-03-15T07:54:37.037Z,3.55
2019-03-15T07:56:54.745Z,3.15
2019-03-15T07:59:23.776Z,3.35
2019-03-15T08:01:52.957Z,3.25
2019-03-15T08:04:21.787Z,2.80
2019-03-15T08:06:50.822Z,3.92
2019-03-15T08:09:19.702Z,4.30
2019-03-15T08:11:48.807Z,2.80
2019-03-15T08:14:17.833Z,3.77
2019-03-15T08:16:46.987Z,3.12
2019-03-15T08:19:15.870Z,3.70
2019-03-15T08:21:44.738Z,4.10
2019-03-15T08:24:13.851Z,3.50
2019-03-15T08:26:42.977Z,3.08
2019-03-15T08:29:12.199Z,3.35
2019-03-15T08:31:41.223Z,3.00
2019-03-15T08:34:10.262Z,2.33
2019-03-15T08:36:39.550Z,2.20
2019-03-15T08:39:08.597Z,2.83
2019-03-15T08:41:37.345Z,2.00
2019-03-15T08:44:06.154Z,3.12
2019-03-15T08:46:35.049Z,2.47
2019-03-15T08:49:04.351Z,2.33
2019-03-15T08:51:33.253Z,2.80
2019-03-15T08:54:02.327Z,2.47
2019-03-15T08:56:31.446Z,2.47
2019-03-15T08:59:00.482Z,2.70
2019-03-15T09:01:29.347Z,2.35
2019-03-15T09:03:58.188Z,2.85
2019-03-15T09:06:27.262Z,2.47
2019-03-15T09:08:56.621Z,2.40
2019-03-15T09:11:25.758Z,2.65
2019-03-15T09:13:54.699Z,2.05
2019-03-15T09:16:23.989Z,2.45
2019-03-15T09:18:55.526Z,2.20
2019-03-15T09:21:23.682Z,2.65
2019-03-15T09:23:52.982Z,2.40
2019-03-15T09:26:22.063Z,2.52
2019-03-15T09:28:51.051Z,2.65
2019-03-15T09:31:20.032Z,3.02
2019-03-15T09:33:49.004Z,2.52
2019-03-15T09:36:18.059Z,3.08
2019-03-15T09:38:47.047Z,3.80
2019-03-15T09:41:16.039Z,3.17
2019-03-15T09:43:45.627Z,3.70
2019-03-15T09:46:14.854Z,4.50
2019-03-15T09:48:44.075Z,3.33
2019-03-15T09:51:13.208Z,3.95
2019-03-15T09:53:42.098Z,4.20
2019-03-15T09:56:10.955Z,4.85
2019-03-15T09:58:39.879Z,5.03
2019-03-15T10:01:09.008Z,5.70
2019-03-15T10:03:38.175Z,6.28
2019-03-15T10:06:15.720Z,4.85
2019-03-15T10:08:39.671Z,5.65
2019-03-15T10:11:08.696Z,4.83
2019-03-15T10:13:37.794Z,5.03
2019-03-15T10:16:06.713Z,5.22
2019-03-15T10:18:35.751Z,4.35
2019-03-15T10:21:04.835Z,5.05
2019-03-15T10:23:33.848Z,4.87
2019-03-15T10:26:02.876Z,5.08
2019-03-15T10:28:31.959Z,5.03
2019-03-15T10:31:00.943Z,5.15
2019-03-15T10:33:29.841Z,4.95
2019-03-15T10:35:58.877Z,5.00
2019-03-15T10:38:27.906Z,5.03
2019-03-15T10:40:56.754Z,5.03
2019-03-15T10:43:25.880Z,4.55
2019-03-15T10:45:54.739Z,4.60
2019-03-15T10:48:25.391Z,5.25
2019-03-15T10:50:54.101Z,5.33
2019-03-15T10:53:23.118Z,4.50
2019-03-15T10:56:00.246Z,5.12
2019-03-15T10:58:22.542Z,4.85
2019-03-15T11:00:51.416Z,5.40
2019-03-15T11:03:20.340Z,5.05
2019-03-15T11:05:49.227Z,5.53
2019-03-15T11:08:18.156Z,5.75
2019-03-15T11:10:47.316Z,5.20
2019-03-15T11:13:16.446Z,6.62
2019-03-15T11:15:45.312Z,5.65
2019-03-15T11:18:14.265Z,5.75
2019-03-15T11:20:43.252Z,6.37
2019-03-15T11:23:12.328Z,7.17
2019-03-15T11:25:41.396Z,7.60
2019-03-15T11:28:10.223Z,8.48
2019-03-15T11:30:39.187Z,7.47
2019-03-15T11:33:08.275Z,7.85
2019-03-15T11:35:37.224Z,7.62
2019-03-15T11:38:06.266Z,8.10
2019-03-15T11:40:37.872Z,7.35
2019-03-15T11:43:06.235Z,10.10
2019-03-15T11:45:35.415Z,8.13
2019-03-15T11:48:04.690Z,8.20
2019-03-15T11:50:34.175Z,7.70
2019-03-15T11:53:03.125Z,9.95
2019-03-15T11:55:32.101Z,7.92
2019-03-15T11:58:00.931Z,8.60
2019-03-15T12:00:29.948Z,9.13
2019-03-15T12:02:58.825Z,8.78
2019-03-15T12:05:27.807Z,9.63
2019-03-15T12:07:56.684Z,9.60
2019-03-15T12:10:25.577Z,9.48
2019-03-15T12:12:54.468Z,8.68
2019-03-15T12:15:23.349Z,9.10
2019-03-15T12:17:52.243Z,9.63
2019-03-15T12:20:21.052Z,7.80
2019-03-15T12:22:49.951Z,8.10
2019-03-15T12:25:19.012Z,9.00
2019-03-15T12:27:47.808Z,9.43
2019-03-15T12:30:17.548Z,7.22
2019-03-15T12:32:46.543Z,7.92
2019-03-15T12:35:16.289Z,7.67
2019-03-15T12:37:45.435Z,8.78
2019-03-15T12:40:16.333Z,7.55
2019-03-15T12:42:45.525Z,7.05
2019-03-15T12:45:14.775Z,6.90
2019-03-15T12:47:43.701Z,6.95
2019-03-15T12:50:14.866Z,6.65
2019-03-15T12:52:48.227Z,6.90
2019-03-15T12:55:15.065Z,6.72
2019-03-15T12:57:48.800Z,7.08
2019-03-15T13:00:20.327Z,6.35
2019-03-15T13:02:49.503Z,6.78
2019-03-15T13:05:18.354Z,5.67
2019-03-15T13:07:47.323Z,6.58
2019-03-15T13:10:20.698Z,5.40
2019-03-15T13:12:49.869Z,4.43
2019-03-15T13:15:18.899Z,5.65
2019-03-15T13:17:47.999Z,7.28
2019-03-15T13:20:17.439Z,7.92
2019-03-15T13:22:46.557Z,4.42
2019-03-15T13:25:15.420Z,4.95
2019-03-15T13:27:44.592Z,5.17
2019-03-15T13:30:15.844Z,4.53
2019-03-15T13:32:44.775Z,4.97
2019-03-15T13:35:13.966Z,4.83
2019-03-15T13:37:45.085Z,4.80
2019-03-15T13:40:18.767Z,3.98
2019-03-15T13:42:49.362Z,4.67
2019-03-15T13:45:18.284Z,4.25
2019-03-15T13:47:47.365Z,4.83
2019-03-15T13:50:17.689Z,4.45
2019-03-15T13:52:46.780Z,4.17
2019-03-15T13:55:15.542Z,3.92
2019-03-15T13:57:44.524Z,4.90
2019-03-15T14:00:18.203Z,5.30
2019-03-15T14:02:47.237Z,5.60
2019-03-15T14:05:16.226Z,4.58
2019-03-15T14:07:45.094Z,3.90
2019-03-15T14:10:16.268Z,4.60
2019-03-15T14:12:45.508Z,4.78
2019-03-15T14:15:16.439Z,3.98
2019-03-15T14:17:45.299Z,3.92
2019-03-15T14:20:14.633Z,3.62
2019-03-15T14:22:43.591Z,4.80
2019-03-15T14:25:21.560Z,3.60
2019-03-15T14:27:50.753Z,3.22
2019-03-15T14:30:19.660Z,3.52
2019-03-15T14:32:48.679Z,3.45
2019-03-15T14:35:17.615Z,3.27
2019-03-15T14:37:46.716Z,3.27
2019-03-15T14:40:15.593Z,3.33
2019-03-15T14:42:44.468Z,3.15
2019-03-15T14:45:14.224Z,3.20
2019-03-15T14:47:43.250Z,4.10
2019-03-15T14:50:13.189Z,3.72
2019-03-15T14:52:41.995Z,2.92
2019-03-15T14:55:15.816Z,2.52
2019-03-15T14:57:52.347Z,2.70
2019-03-15T15:00:21.839Z,2.77
2019-03-15T15:02:50.652Z,2.67
2019-03-15T15:05:19.534Z,3.67
2019-03-15T15:07:48.350Z,2.80
2019-03-15T15:10:17.913Z,3.02
2019-03-15T15:12:47.101Z,2.65
2019-03-15T15:15:17.472Z,2.75
2019-03-15T15:17:46.704Z,3.08
2019-03-15T15:20:15.508Z,2.58
2019-03-15T15:22:47.220Z,2.92
2019-03-15T15:25:17.636Z,2.95
2019-03-15T15:27:46.449Z,2.60
2019-03-15T15:30:16.309Z,3.58
2019-03-15T15:32:45.207Z,2.22
2019-03-15T15:35:14.514Z,2.55
2019-03-15T15:37:43.300Z,2.17
2019-03-15T15:40:14.187Z,2.35
2019-03-15T15:42:43.209Z,2.80
2019-03-15T15:45:12.412Z,2.75
2019-03-15T15:47:41.395Z,2.50
2019-03-15T15:50:12.456Z,2.98
2019-03-15T15:52:41.294Z,3.00
2019-03-15T15:55:16.870Z,2.98
2019-03-15T15:57:46.202Z,2.60
2019-03-15T16:00:18.432Z,2.75
2019-03-15T16:02:47.381Z,2.98
2019-03-15T16:05:16.489Z,2.95
2019-03-15T16:07:45.446Z,3.10
2019-03-15T16:10:18.487Z,2.87
2019-03-15T16:12:47.618Z,3.20
2019-03-15T16:15:20.639Z,3.15
2019-03-15T16:17:49.487Z,4.00
2019-03-15T16:20:18.282Z,3.85
2019-03-15T16:22:47.349Z,4.17
2019-03-15T16:25:16.368Z,3.95
2019-03-15T16:27:45.523Z,4.45
2019-03-15T16:30:16.717Z,4.45
2019-03-15T16:32:45.641Z,4.85
2019-03-15T16:35:14.809Z,4.10
2019-03-15T16:37:43.860Z,3.90
2019-03-15T16:40:13.941Z,4.25
2019-03-15T16:42:42.964Z,4.37
2019-03-15T16:45:20.885Z,3.20
2019-03-15T16:47:49.832Z,3.55
2019-03-15T16:50:18.791Z,3.33
2019-03-15T16:52:47.618Z,3.62
2019-03-15T16:55:16.498Z,2.90
2019-03-15T16:57:45.632Z,2.62
2019-03-15T17:00:17.817Z,2.70
2019-03-15T17:02:47.033Z,2.33
2019-03-15T17:05:15.966Z,2.22
2019-03-15T17:07:44.873Z,2.20
2019-03-15T17:10:15.155Z,1.95
2019-03-15T17:12:44.112Z,1.77
2019-03-15T17:15:24.671Z,1.70
2019-03-15T17:17:53.745Z,1.70
2019-03-15T17:20:22.620Z,1.82
2019-03-15T17:22:51.468Z,1.67
2019-03-15T17:25:20.244Z,2.02
2019-03-15T17:27:49.086Z,1.90
2019-03-15T17:30:18.477Z,2.17
2019-03-15T17:32:47.354Z,2.30
2019-03-15T17:35:17.173Z,1.95
2019-03-15T17:37:46.018Z,2.70
2019-03-15T17:40:17.363Z,2.37
2019-03-15T17:42:46.261Z,2.87
2019-03-15T17:45:15.419Z,1.60
2019-03-15T17:47:44.359Z,1.82
2019-03-15T17:50:21.568Z,1.32
2019-03-15T17:52:50.620Z,1.72
2019-03-15T17:55:19.446Z,2.10
2019-03-15T17:57:48.347Z,1.98
2019-03-15T18:00:27.170Z,2.12
2019-03-15T18:02:56.009Z,1.87
2019-03-15T18:05:25.010Z,2.72
2019-03-15T18:07:53.954Z,1.90
2019-03-15T18:10:22.977Z,1.72
2019-03-15T18:12:51.772Z,2.45
2019-03-15T18:15:20.564Z,2.10
2019-03-15T18:17:49.619Z,1.80
2019-03-15T18:20:18.946Z,2.37
2019-03-15T18:22:47.872Z,2.67
2019-03-15T18:25:16.861Z,2.90
2019-03-15T18:27:45.950Z,2.17
2019-03-15T18:30:16.049Z,2.72
2019-03-15T18:32:45.034Z,2.67
2019-03-15T18:35:14.071Z,2.60
2019-03-15T18:37:43.041Z,2.42
2019-03-15T18:40:19.612Z,2.42
2019-03-15T18:42:48.667Z,2.70
2019-03-15T18:45:18.166Z,3.45
2019-03-15T18:47:47.172Z,3.25
2019-03-15T18:50:24.438Z,3.65
2019-03-15T18:52:53.298Z,2.72
2019-03-15T18:55:22.200Z,2.40
2019-03-15T18:57:51.193Z,2.62
2019-03-15T19:00:21.200Z,3.25
2019-03-15T19:02:50.238Z,2.83
2019-03-15T19:05:19.247Z,2.62
2019-03-15T19:07:48.334Z,2.27
2019-03-15T19:10:17.384Z,2.70
2019-03-15T19:12:46.338Z,2.90
2019-03-15T19:15:20.488Z,3.67
2019-03-15T19:17:49.353Z,3.35
2019-03-15T19:20:18.326Z,3.72
2019-03-15T19:22:47.112Z,2.92
2019-03-15T19:25:16.353Z,3.15
2019-03-15T19:27:47.946Z,3.00
2019-03-15T19:30:18.324Z,4.05
2019-03-15T19:32:47.311Z,3.45
2019-03-15T19:35:16.391Z,3.00
2019-03-15T19:37:45.327Z,2.62
2019-03-15T19:40:15.691Z,2.58
2019-03-15T19:42:45.718Z,2.95
2019-03-15T19:45:15.923Z,2.47
2019-03-15T19:47:44.880Z,2.95
2019-03-15T19:50:19.926Z,2.95
2019-03-15T19:52:48.870Z,2.70
2019-03-15T19:55:17.901Z,2.50
2019-03-15T19:57:46.921Z,3.00
2019-03-15T20:00:17.138Z,3.05
2019-03-15T20:02:46.272Z,2.65
2019-03-15T20:05:15.197Z,2.67
2019-03-15T20:07:44.315Z,3.98
2019-03-15T20:10:16.709Z,3.22
2019-03-15T20:12:45.949Z,2.90
2019-03-15T20:15:17.910Z,3.62
2019-03-15T20:17:47.025Z,3.75
2019-03-15T20:20:17.196Z,3.72
2019-03-15T20:22:46.418Z,2.85
2019-03-15T20:25:16.252Z,3.22
2019-03-15T20:27:46.619Z,3.83
2019-03-15T20:30:26.670Z,3.02
2019-03-15T20:32:53.782Z,3.10
2019-03-15T20:35:23.101Z,3.10
2019-03-15T20:37:52.265Z,3.62
2019-03-15T20:40:21.054Z,3.22
2019-03-15T20:42:50.372Z,3.08
2019-03-15T20:45:27.536Z,3.77
2019-03-15T20:47:56.755Z,3.10
2019-03-15T20:50:26.023Z,3.08
2019-03-15T20:53:07.647Z,3.35
2019-03-15T20:55:28.452Z,3.20
2019-03-15T20:57:56.699Z,3.50
2019-03-15T21:00:35.335Z,2.92
2019-03-15T21:02:57.128Z,2.77
2019-03-15T21:05:26.544Z,3.50
2019-03-15T21:07:55.948Z,2.90
2019-03-15T21:10:25.334Z,2.83
2019-03-15T21:12:54.755Z,2.95
2019-03-15T21:15:24.049Z,2.92
2019-03-15T21:17:53.338Z,3.22
2019-03-15T21:20:23.021Z,2.75
2019-03-15T21:22:52.074Z,2.85
2019-03-15T21:25:21.043Z,3.00
2019-03-15T21:27:54.115Z,3.12
2019-03-15T21:30:27.344Z,3.05
2019-03-15T21:32:56.513Z,2.72
2019-03-15T21:35:25.355Z,2.90
2019-03-15T21:37:54.357Z,2.92
2019-03-15T21:40:23.486Z,2.37
2019-03-15T21:42:52.919Z,2.70
2019-03-15T21:45:22.050Z,2.65
2019-03-15T21:47:51.099Z,3.22
2019-03-15T21:50:21.372Z,2.40
2019-03-15T21:52:50.485Z,2.58
2019-03-15T21:55:19.242Z,3.33
2019-03-15T21:57:48.194Z,2.30
2019-03-15T22:00:18.055Z,3.45
2019-03-15T22:02:47.610Z,2.70
2019-03-15T22:05:16.629Z,3.10
2019-03-15T22:07:45.702Z,2.30
2019-03-15T22:10:17.846Z,2.55
2019-03-15T22:12:46.907Z,3.00
2019-03-15T22:15:15.911Z,2.60
2019-03-15T22:17:44.877Z,3.00
2019-03-15T22:20:15.830Z,2.62
2019-03-15T22:22:44.869Z,2.65
2019-03-15T22:25:13.742Z,2.92
2019-03-15T22:27:42.704Z,2.87
2019-03-15T22:30:14.978Z,2.83
2019-03-15T22:32:43.815Z,2.62
2019-03-15T22:35:12.818Z,2.65
2019-03-15T22:37:41.773Z,2.98
2019-03-15T22:40:12.844Z,2.72
2019-03-15T22:42:41.726Z,2.98
2019-03-15T22:45:14.326Z,3.45
2019-03-15T22:47:43.290Z,3.37
2019-03-15T22:50:13.147Z,3.72
2019-03-15T22:52:42.061Z,4.60
2019-03-15T22:55:11.328Z,3.30
2019-03-15T22:57:40.223Z,3.42
2019-03-15T23:00:16.989Z,2.90
2019-03-15T23:02:46.008Z,3.37
2019-03-15T23:05:15.046Z,3.22
2019-03-15T23:07:43.890Z,3.95
2019-03-15T23:10:12.860Z,3.02
2019-03-15T23:12:41.780Z,3.22
2019-03-15T23:15:11.540Z,3.37
2019-03-15T23:17:40.283Z,3.22
2019-03-15T23:20:11.370Z,3.45
2019-03-15T23:22:40.170Z,2.75
2019-03-15T23:25:09.128Z,2.70
2019-03-15T23:27:37.958Z,3.00
2019-03-15T23:30:17.331Z,2.95
2019-03-15T23:32:46.197Z,3.25
2019-03-15T23:35:15.064Z,2.95
2019-03-15T23:37:43.875Z,2.75
2019-03-15T23:40:13.957Z,3.00
2019-03-15T23:42:43.088Z,3.85
2019-03-15T23:45:11.957Z,3.47
2019-03-15T23:47:40.854Z,3.80
2019-03-15T23:50:14.052Z,3.02
2019-03-15T23:52:43.078Z,3.27
2019-03-15T23:55:12.014Z,3.12
2019-03-15T23:57:40.851Z,2.87
